createdAt,value
2023-05-17T00:01:51.750Z,6.05
2023-05-17T00:04:19.741Z,5.85
2023-05-17T00:06:47.699Z,5.63
2023-05-17T00:09:15.824Z,5.65
2023-05-17T00:11:43.853Z,6.10
2023-05-17T00:14:13.381Z,6.03
2023-05-17T00:16:41.398Z,6.15
2023-05-17T00:19:10.444Z,5.30
2023-05-17T00:21:38.623Z,5.85
2023-05-17T00:24:07.359Z,5.57
2023-05-17T00:26:35.359Z,5.72
2023-05-17T00:29:03.588Z,5.68
2023-05-17T00:31:32.896Z,5.53
2023-05-17T00:34:00.825Z,5.80
2023-05-17T00:36:28.899Z,5.75
2023-05-17T00:38:56.862Z,5.75
2023-05-17T00:41:24.801Z,5.78
2023-05-17T00:43:52.934Z,6.50
2023-05-17T00:46:20.896Z,5.75
2023-05-17T00:48:50.482Z,5.30
2023-05-17T00:51:22.050Z,5.32
2023-05-17T00:53:50.558Z,5.95
2023-05-17T00:56:18.799Z,5.43
2023-05-17T00:58:46.895Z,5.43
2023-05-17T01:01:15.442Z,6.38
2023-05-17T01:03:43.948Z,5.88
2023-05-17T01:06:13.426Z,6.50
2023-05-17T01:08:41.495Z,6.22
2023-05-17T01:11:18.869Z,5.90
2023-05-17T01:13:53.977Z,6.03
2023-05-17T01:16:31.004Z,5.90
2023-05-17T01:19:08.872Z,6.03
2023-05-17T01:21:58.472Z,6.22
2023-05-17T01:24:31.190Z,5.93
2023-05-17T01:27:01.474Z,5.90
2023-05-17T01:29:30.825Z,5.28
2023-05-17T01:32:00.718Z,6.07
2023-05-17T01:34:29.344Z,5.55
2023-05-17T01:36:58.040Z,5.97
2023-05-17T01:39:26.049Z,5.57
2023-05-17T01:42:03.556Z,5.72
2023-05-17T01:44:37.889Z,6.10
2023-05-17T01:47:14.650Z,5.00
2023-05-17T01:49:46.026Z,5.72
2023-05-17T01:52:19.718Z,6.30
2023-05-17T01:54:55.300Z,5.07
2023-05-17T01:57:29.762Z,5.63
2023-05-17T02:00:03.130Z,4.85
2023-05-17T02:02:31.560Z,5.38
2023-05-17T02:04:59.526Z,5.88
2023-05-17T02:07:27.525Z,5.72
2023-05-17T02:09:55.530Z,5.50
2023-05-17T02:12:25.403Z,5.25
2023-05-17T02:14:53.355Z,5.63
2023-05-17T02:17:21.279Z,5.47
2023-05-17T02:19:49.259Z,5.22
2023-05-17T02:22:17.301Z,5.38
2023-05-17T02:24:46.729Z,5.60
2023-05-17T02:27:14.673Z,5.57
2023-05-17T02:29:43.911Z,6.40
2023-05-17T02:32:12.069Z,5.25
2023-05-17T02:34:39.991Z,5.32
2023-05-17T02:37:07.897Z,5.20
2023-05-17T02:39:35.917Z,5.95
2023-05-17T02:42:03.875Z,5.53
2023-05-17T02:44:31.783Z,6.68
2023-05-17T02:47:01.034Z,5.38
2023-05-17T02:49:29.043Z,5.75
2023-05-17T02:51:57.190Z,5.57
2023-05-17T02:54:25.330Z,5.85
2023-05-17T02:56:53.457Z,5.78
2023-05-17T02:59:21.400Z,5.72
2023-05-17T03:01:50.187Z,5.93
2023-05-17T03:04:20.326Z,4.90
2023-05-17T03:06:48.403Z,5.55
2023-05-17T03:09:16.385Z,5.50
2023-05-17T03:11:44.561Z,5.25
2023-05-17T03:14:12.563Z,5.47
2023-05-17T03:16:40.582Z,5.40
2023-05-17T03:19:08.822Z,5.65
2023-05-17T03:21:38.320Z,5.88
2023-05-17T03:24:07.233Z,5.53
2023-05-17T03:26:35.250Z,5.60
2023-05-17T03:29:03.227Z,5.25
2023-05-17T03:31:31.223Z,5.57
2023-05-17T03:33:59.283Z,5.88
2023-05-17T03:36:27.297Z,5.88
2023-05-17T03:38:56.627Z,5.95
2023-05-17T03:41:24.709Z,5.68
2023-05-17T03:43:52.694Z,5.40
2023-05-17T03:46:20.638Z,5.65
2023-05-17T03:48:48.641Z,5.05
2023-05-17T03:51:16.990Z,4.47
2023-05-17T03:53:44.950Z,4.97
2023-05-17T03:56:15.880Z,4.93
2023-05-17T03:58:43.867Z,4.43
2023-05-17T04:01:12.001Z,5.30
2023-05-17T04:03:40.022Z,5.00
2023-05-17T04:06:08.486Z,4.63
2023-05-17T04:08:36.626Z,5.22
2023-05-17T04:11:10.378Z,5.30
2023-05-17T04:13:40.208Z,4.47
2023-05-17T04:16:09.166Z,4.10
2023-05-17T04:18:38.424Z,4.25
2023-05-17T04:21:06.877Z,4.68
2023-05-17T04:23:35.432Z,4.85
2023-05-17T04:26:04.265Z,3.97
2023-05-17T04:28:32.549Z,4.45
2023-05-17T04:31:02.106Z,4.22
2023-05-17T04:33:30.189Z,3.90
2023-05-17T04:35:58.310Z,3.85
2023-05-17T04:38:26.300Z,4.47
2023-05-17T04:40:54.364Z,3.92
2023-05-17T04:43:22.320Z,4.00
2023-05-17T04:45:50.410Z,4.07
2023-05-17T04:48:20.830Z,3.88
2023-05-17T04:50:48.940Z,4.05
2023-05-17T04:53:16.863Z,3.50
2023-05-17T04:55:44.952Z,3.53
2023-05-17T04:58:13.092Z,4.35
2023-05-17T05:00:41.073Z,4.07
2023-05-17T05:03:09.229Z,4.72
2023-05-17T05:05:38.659Z,3.70
2023-05-17T05:08:06.645Z,4.45
2023-05-17T05:10:34.529Z,4.13
2023-05-17T05:13:02.488Z,4.25
2023-05-17T05:15:30.740Z,4.25
2023-05-17T05:17:58.915Z,4.60
2023-05-17T05:20:28.112Z,5.13
2023-05-17T05:22:58.530Z,3.63
2023-05-17T05:25:26.724Z,4.10
2023-05-17T05:27:54.873Z,4.50
2023-05-17T05:30:22.954Z,4.40
2023-05-17T05:32:51.199Z,3.53
2023-05-17T05:35:19.798Z,3.78
2023-05-17T05:37:47.748Z,4.32
2023-05-17T05:40:17.451Z,4.13
2023-05-17T05:42:45.437Z,4.05
2023-05-17T05:45:13.719Z,2.97
2023-05-17T05:47:41.767Z,3.38
2023-05-17T05:50:11.089Z,3.92
2023-05-17T05:52:39.106Z,3.92
2023-05-17T05:55:07.944Z,4.53
2023-05-17T05:57:37.349Z,4.40
2023-05-17T06:00:06.131Z,3.70
2023-05-17T06:02:34.943Z,3.53
2023-05-17T06:05:03.865Z,3.72
2023-05-17T06:07:31.781Z,3.60
2023-05-17T06:09:59.711Z,4.00
2023-05-17T06:12:27.807Z,3.65
2023-05-17T06:14:57.122Z,3.65
2023-05-17T06:17:25.118Z,3.65
2023-05-17T06:19:53.107Z,3.55
2023-05-17T06:22:21.599Z,3.30
2023-05-17T06:24:49.508Z,4.15
2023-05-17T06:27:17.438Z,3.30
2023-05-17T06:29:45.372Z,4.05
2023-05-17T06:32:14.777Z,3.88
2023-05-17T06:34:42.709Z,3.67
2023-05-17T06:37:10.767Z,4.15
2023-05-17T06:39:38.890Z,4.32
2023-05-17T06:42:07.086Z,3.45
2023-05-17T06:44:35.175Z,3.17
2023-05-17T06:47:03.310Z,3.40
2023-05-17T06:49:32.558Z,3.78
2023-05-17T06:52:03.559Z,4.00
2023-05-17T06:54:31.603Z,3.35
2023-05-17T06:57:01.550Z,3.35
2023-05-17T06:59:29.555Z,2.90
2023-05-17T07:02:00.003Z,3.38
2023-05-17T07:04:28.129Z,3.45
2023-05-17T07:06:57.565Z,2.70
2023-05-17T07:09:25.554Z,3.20
2023-05-17T07:11:53.551Z,3.50
2023-05-17T07:14:21.455Z,3.70
2023-05-17T07:16:49.435Z,3.10
2023-05-17T07:19:17.584Z,3.30
2023-05-17T07:21:46.496Z,4.30
2023-05-17T07:24:15.949Z,3.50
2023-05-17T07:26:44.059Z,3.15
2023-05-17T07:29:13.698Z,3.80
2023-05-17T07:31:41.614Z,3.60
2023-05-17T07:34:09.622Z,3.38
2023-05-17T07:36:37.777Z,3.35
2023-05-17T07:39:06.279Z,3.60
2023-05-17T07:41:36.076Z,3.70
2023-05-17T07:44:04.083Z,3.28
2023-05-17T07:46:32.133Z,3.10
2023-05-17T07:49:00.204Z,2.75
2023-05-17T07:51:28.265Z,3.30
2023-05-17T07:53:56.362Z,3.03
2023-05-17T07:56:24.375Z,2.78
2023-05-17T07:58:54.288Z,2.83
2023-05-17T08:01:24.321Z,3.13
2023-05-17T08:03:52.379Z,2.80
2023-05-17T08:06:20.578Z,3.47
2023-05-17T08:08:48.530Z,2.65
2023-05-17T08:11:16.827Z,3.28
2023-05-17T08:13:44.921Z,2.83
2023-05-17T08:16:15.014Z,2.33
2023-05-17T08:18:43.887Z,2.75
2023-05-17T08:21:17.044Z,2.38
2023-05-17T08:23:46.263Z,2.67
2023-05-17T08:26:17.661Z,2.08
2023-05-17T08:28:45.683Z,2.00
2023-05-17T08:31:20.200Z,1.98
2023-05-17T08:33:48.164Z,2.50
2023-05-17T08:36:21.617Z,1.77
2023-05-17T08:38:49.725Z,2.10
2023-05-17T08:41:17.770Z,1.98
2023-05-17T08:43:46.048Z,1.95
2023-05-17T08:46:16.778Z,1.73
2023-05-17T08:48:46.953Z,1.95
2023-05-17T08:51:16.261Z,2.00
2023-05-17T08:53:47.102Z,1.73
2023-05-17T08:56:18.633Z,2.35
2023-05-17T08:58:56.594Z,2.10
2023-05-17T09:01:29.407Z,2.08
2023-05-17T09:04:01.296Z,1.52
2023-05-17T09:06:31.048Z,1.80
2023-05-17T09:09:01.489Z,1.90
2023-05-17T09:11:31.279Z,1.85
2023-05-17T09:14:03.538Z,2.28
2023-05-17T09:16:35.012Z,2.10
2023-05-17T09:19:04.844Z,2.17
2023-05-17T09:21:34.010Z,2.05
2023-05-17T09:24:07.084Z,2.15
2023-05-17T09:26:40.821Z,2.10
2023-05-17T09:31:41.668Z,2.20
2023-05-17T09:34:10.304Z,2.25
2023-05-17T09:36:39.678Z,2.50
2023-05-17T09:39:12.108Z,2.17
2023-05-17T09:41:48.187Z,2.25
2023-05-17T09:44:22.379Z,1.80
2023-05-17T09:46:52.863Z,2.30
2023-05-17T09:49:23.506Z,2.17
2023-05-17T09:51:51.596Z,2.00
2023-05-17T09:54:19.642Z,1.77
2023-05-17T09:56:54.772Z,1.70
2023-05-17T09:59:25.408Z,1.75
2023-05-17T10:01:55.132Z,1.42
2023-05-17T10:04:25.718Z,1.90
2023-05-17T10:06:55.029Z,1.92
2023-05-17T10:09:24.118Z,1.83
2023-05-17T10:11:53.917Z,1.80
2023-05-17T10:14:28.097Z,1.60
2023-05-17T10:17:11.917Z,1.60
2023-05-17T10:19:42.570Z,2.03
2023-05-17T10:22:21.546Z,1.95
2023-05-17T10:24:52.313Z,1.80
2023-05-17T10:27:30.341Z,1.67
2023-05-17T10:30:01.401Z,1.83
2023-05-17T10:32:31.710Z,1.92
2023-05-17T10:35:11.378Z,1.95
2023-05-17T10:37:41.438Z,1.90
2023-05-17T10:40:13.575Z,1.90
2023-05-17T10:42:44.501Z,1.90
2023-05-17T10:45:13.768Z,1.85
2023-05-17T10:47:46.051Z,2.00
2023-05-17T10:50:15.324Z,1.70
2023-05-17T10:52:48.113Z,2.20
2023-05-17T10:55:20.688Z,2.53
2023-05-17T10:58:15.986Z,2.10
2023-05-17T11:00:46.120Z,2.00
2023-05-17T11:03:17.706Z,1.98
2023-05-17T11:06:06.593Z,2.30
2023-05-17T11:08:46.109Z,2.15
2023-05-17T11:11:15.228Z,2.22
2023-05-17T11:13:48.112Z,1.70
2023-05-17T11:16:18.201Z,2.10
2023-05-17T11:18:52.417Z,2.25
2023-05-17T11:21:21.394Z,2.10
2023-05-17T11:23:56.178Z,2.20
2023-05-17T11:26:27.772Z,1.90
2023-05-17T11:29:03.059Z,2.20
2023-05-17T11:31:32.529Z,2.00
2023-05-17T11:34:04.135Z,1.90
2023-05-17T11:36:32.899Z,2.10
2023-05-17T11:39:17.161Z,1.88
2023-05-17T11:41:50.176Z,2.10
2023-05-17T11:44:25.207Z,2.13
2023-05-17T11:47:01.326Z,2.25
2023-05-17T11:49:36.129Z,1.95
2023-05-17T11:52:04.979Z,2.40
2023-05-17T11:54:33.472Z,2.03
2023-05-17T11:57:02.818Z,1.77
2023-05-17T11:59:30.929Z,1.77
2023-05-17T12:01:58.810Z,1.95
2023-05-17T12:04:28.326Z,1.73
2023-05-17T12:07:01.477Z,1.75
2023-05-17T12:09:31.497Z,1.95
2023-05-17T12:12:04.617Z,2.00
2023-05-17T12:14:32.950Z,1.73
2023-05-17T12:17:02.786Z,2.20
2023-05-17T12:19:33.926Z,2.45
2023-05-17T12:22:13.734Z,2.00
2023-05-17T12:24:42.849Z,1.70
2023-05-17T12:27:11.249Z,2.05
2023-05-17T12:29:40.150Z,2.42
2023-05-17T12:32:11.070Z,2.13
2023-05-17T12:34:39.316Z,2.33
2023-05-17T12:37:10.987Z,2.15
2023-05-17T12:39:39.438Z,2.35
2023-05-17T12:42:08.457Z,1.83
2023-05-17T12:44:37.241Z,2.05
2023-05-17T12:47:05.227Z,1.90
2023-05-17T12:49:39.656Z,2.00
2023-05-17T12:52:11.204Z,2.13
2023-05-17T12:54:43.014Z,2.35
2023-05-17T12:57:12.946Z,1.83
2023-05-17T12:59:48.749Z,2.35
2023-05-17T13:02:17.398Z,2.63
2023-05-17T13:04:46.481Z,2.10
2023-05-17T13:07:22.790Z,1.83
2023-05-17T13:09:50.778Z,1.98
2023-05-17T13:12:27.927Z,2.00
2023-05-17T13:14:55.876Z,2.20
2023-05-17T13:17:27.282Z,2.13
2023-05-17T13:19:57.163Z,2.40
2023-05-17T13:22:27.272Z,2.00
2023-05-17T13:24:55.954Z,2.45
2023-05-17T13:27:23.963Z,2.10
2023-05-17T13:29:51.894Z,2.20
2023-05-17T13:32:19.919Z,1.90
2023-05-17T13:34:47.914Z,1.98
2023-05-17T13:37:15.872Z,2.20
2023-05-17T13:39:45.225Z,2.28
2023-05-17T13:42:13.745Z,2.33
2023-05-17T13:44:41.909Z,2.00
2023-05-17T13:47:09.802Z,2.00
2023-05-17T13:49:38.013Z,2.00
2023-05-17T13:52:08.686Z,1.90
2023-05-17T13:54:39.156Z,1.90
2023-05-17T13:57:08.861Z,2.10
2023-05-17T13:59:36.923Z,2.13
2023-05-17T14:02:05.158Z,2.10
2023-05-17T14:04:33.252Z,2.13
2023-05-17T14:07:01.757Z,2.40
2023-05-17T14:09:32.884Z,1.65
2023-05-17T14:12:01.374Z,1.70
2023-05-17T14:14:31.335Z,2.17
2023-05-17T14:16:59.251Z,2.03
2023-05-17T14:19:27.455Z,2.00
2023-05-17T14:21:55.555Z,2.20
2023-05-17T14:24:23.738Z,1.98
2023-05-17T14:26:51.669Z,2.05
2023-05-17T14:29:19.640Z,2.40
2023-05-17T14:31:48.901Z,2.00
2023-05-17T14:34:16.950Z,2.10
2023-05-17T14:36:44.893Z,1.80
2023-05-17T14:39:13.241Z,2.17
2023-05-17T14:41:42.744Z,2.17
2023-05-17T14:44:12.161Z,2.00
2023-05-17T14:46:40.100Z,2.20
2023-05-17T14:49:09.527Z,2.45
2023-05-17T14:51:37.786Z,2.47
2023-05-17T14:54:05.884Z,2.40
2023-05-17T14:56:33.823Z,2.13
2023-05-17T14:59:02.818Z,2.17
2023-05-17T15:01:30.732Z,2.42
2023-05-17T15:03:58.991Z,2.00
2023-05-17T15:06:28.331Z,2.00
2023-05-17T15:08:56.291Z,2.10
2023-05-17T15:11:24.196Z,1.98
2023-05-17T15:13:52.847Z,2.10
2023-05-17T15:16:21.048Z,2.20
2023-05-17T15:18:49.202Z,2.10
2023-05-17T15:21:18.990Z,1.95
2023-05-17T15:23:50.641Z,2.20
2023-05-17T15:28:47.176Z,2.78
2023-05-17T15:31:15.085Z,2.25
2023-05-17T15:33:47.204Z,2.00
2023-05-17T15:36:16.372Z,2.08
2023-05-17T15:38:44.475Z,2.30
2023-05-17T15:41:15.926Z,2.30
2023-05-17T15:46:12.585Z,2.92
2023-05-17T15:48:40.568Z,2.58
2023-05-17T15:51:08.585Z,2.17
2023-05-17T15:53:36.664Z,2.70
2023-05-17T15:56:04.925Z,2.50
2023-05-17T15:58:34.157Z,2.33
2023-05-17T16:01:04.245Z,2.70
2023-05-17T16:03:32.373Z,2.80
2023-05-17T16:06:00.735Z,2.67
2023-05-17T16:08:28.672Z,2.38
2023-05-17T16:10:56.533Z,2.80
2023-05-17T16:13:24.995Z,2.45
2023-05-17T16:15:55.367Z,2.58
2023-05-17T16:18:23.334Z,2.50
2023-05-17T16:20:58.755Z,2.45
2023-05-17T16:23:26.744Z,2.38
2023-05-17T16:25:56.007Z,2.63
2023-05-17T16:28:24.630Z,2.35
2023-05-17T16:30:54.410Z,2.63
2023-05-17T16:33:22.442Z,2.53
2023-05-17T16:35:51.433Z,2.33
2023-05-17T16:38:19.431Z,2.53
2023-05-17T16:40:47.436Z,2.50
2023-05-17T16:43:16.456Z,2.45
2023-05-17T16:45:45.574Z,2.35
2023-05-17T16:48:15.983Z,2.25
2023-05-17T16:50:43.926Z,2.78
2023-05-17T16:53:12.202Z,2.70
2023-05-17T16:55:40.098Z,2.33
2023-05-17T16:58:08.017Z,2.65
2023-05-17T17:00:36.069Z,2.85
2023-05-17T17:03:05.934Z,3.05
2023-05-17T17:05:37.721Z,2.60
2023-05-17T17:08:05.723Z,2.58
2023-05-17T17:10:34.696Z,2.67
2023-05-17T17:13:03.403Z,2.60
2023-05-17T17:15:31.359Z,3.17
2023-05-17T17:17:59.394Z,2.58
2023-05-17T17:20:27.591Z,2.30
2023-05-17T17:22:57.409Z,2.33
2023-05-17T17:25:25.582Z,2.75
2023-05-17T17:27:53.539Z,3.00
2023-05-17T17:30:21.676Z,2.53
2023-05-17T17:32:49.726Z,2.72
2023-05-17T17:35:17.881Z,2.30
2023-05-17T17:37:45.852Z,2.60
2023-05-17T17:40:15.280Z,2.72
2023-05-17T17:42:43.172Z,2.90
2023-05-17T17:45:11.598Z,2.63
2023-05-17T17:47:39.561Z,2.65
2023-05-17T17:50:08.804Z,2.90
2023-05-17T17:52:37.221Z,3.17
2023-05-17T17:55:06.022Z,2.85
2023-05-17T17:57:35.310Z,2.85
2023-05-17T18:00:06.085Z,2.70
2023-05-17T18:02:34.087Z,2.40
2023-05-17T18:05:02.269Z,2.78
2023-05-17T18:07:30.319Z,3.50
2023-05-17T18:09:58.504Z,2.65
2023-05-17T18:12:27.120Z,4.18
2023-05-17T18:14:56.608Z,4.50
2023-05-17T18:17:24.728Z,3.22
2023-05-17T18:19:53.496Z,2.95
2023-05-17T18:22:21.361Z,2.10
2023-05-17T18:24:49.397Z,3.63
2023-05-17T18:27:17.289Z,3.15
2023-05-17T18:29:45.186Z,3.30
2023-05-17T18:32:14.567Z,4.10
2023-05-17T18:34:42.561Z,3.13
2023-05-17T18:37:10.499Z,3.40
2023-05-17T18:39:38.423Z,2.67
2023-05-17T18:42:06.830Z,3.13
2023-05-17T18:44:35.270Z,3.38
2023-05-17T18:47:03.287Z,2.67
2023-05-17T18:49:32.619Z,3.33
2023-05-17T18:52:00.546Z,3.63
2023-05-17T18:54:28.455Z,3.30
2023-05-17T18:56:56.433Z,3.22
2023-05-17T18:59:24.364Z,2.88
2023-05-17T19:01:52.278Z,2.35
2023-05-17T19:04:20.315Z,2.40
2023-05-17T19:06:49.615Z,2.50
2023-05-17T19:09:17.531Z,2.67
2023-05-17T19:11:45.410Z,2.53
2023-05-17T19:14:14.709Z,3.05
2023-05-17T19:16:42.679Z,2.53
2023-05-17T19:19:10.675Z,2.40
2023-05-17T19:21:38.657Z,2.65
2023-05-17T19:24:08.270Z,2.60
2023-05-17T19:26:36.286Z,3.05
2023-05-17T19:29:04.163Z,2.88
2023-05-17T19:31:32.164Z,2.85
2023-05-17T19:34:01.634Z,2.72
2023-05-17T19:36:29.630Z,3.10
2023-05-17T19:38:57.564Z,2.67
2023-05-17T19:41:26.847Z,2.60
2023-05-17T19:43:54.732Z,2.33
2023-05-17T19:46:22.683Z,2.50
2023-05-17T19:48:50.963Z,2.60
2023-05-17T19:51:19.377Z,2.67
2023-05-17T19:53:53.441Z,2.45
2023-05-17T19:56:21.603Z,2.45
2023-05-17T19:58:52.031Z,3.28
2023-05-17T20:01:21.325Z,2.53
2023-05-17T20:03:49.460Z,2.80
2023-05-17T20:06:17.499Z,2.92
2023-05-17T20:08:46.380Z,2.85
2023-05-17T20:11:14.818Z,2.67
2023-05-17T20:13:42.695Z,2.55
2023-05-17T20:16:13.579Z,2.35
2023-05-17T20:18:43.511Z,2.42
2023-05-17T20:21:12.757Z,2.65
2023-05-17T20:23:41.138Z,2.58
2023-05-17T20:26:15.976Z,2.42
2023-05-17T20:28:44.418Z,2.40
2023-05-17T20:31:13.849Z,2.75
2023-05-17T20:33:44.005Z,2.40
2023-05-17T20:36:14.193Z,2.67
2023-05-17T20:38:45.080Z,2.60
2023-05-17T20:41:14.843Z,2.45
2023-05-17T20:43:46.128Z,2.75
2023-05-17T20:46:15.907Z,2.78
2023-05-17T20:48:46.376Z,2.42
2023-05-17T20:51:20.264Z,2.53
2023-05-17T20:53:48.197Z,3.13
2023-05-17T20:56:16.195Z,2.70
2023-05-17T20:58:44.203Z,2.72
2023-05-17T21:01:12.157Z,2.50
2023-05-17T21:03:42.045Z,2.80
2023-05-17T21:06:10.083Z,2.65
2023-05-17T21:08:38.461Z,2.67
2023-05-17T21:11:06.418Z,2.65
2023-05-17T21:13:34.424Z,2.92
2023-05-17T21:16:02.669Z,2.60
2023-05-17T21:18:30.660Z,2.45
2023-05-17T21:21:00.643Z,2.70
2023-05-17T21:23:28.628Z,2.72
2023-05-17T21:25:56.503Z,2.40
2023-05-17T21:28:27.844Z,2.22
2023-05-17T21:30:55.892Z,2.78
2023-05-17T21:33:23.742Z,2.75
2023-05-17T21:35:52.085Z,2.90
2023-05-17T21:38:21.374Z,2.83
2023-05-17T21:40:49.275Z,2.67
2023-05-17T21:43:17.143Z,2.78
2023-05-17T21:45:45.141Z,2.40
2023-05-17T21:48:13.132Z,2.70
2023-05-17T21:50:41.163Z,2.53
2023-05-17T21:53:09.115Z,2.65
2023-05-17T21:55:56.193Z,2.20
2023-05-17T21:58:27.552Z,2.22
2023-05-17T22:00:55.554Z,2.33
2023-05-17T22:03:23.577Z,2.40
2023-05-17T22:05:52.537Z,2.30
2023-05-17T22:08:20.557Z,2.20
2023-05-17T22:10:50.432Z,2.50
2023-05-17T22:13:19.090Z,2.70
2023-05-17T22:15:47.190Z,2.25
2023-05-17T22:18:15.298Z,2.30
2023-05-17T22:20:43.290Z,2.55
2023-05-17T22:23:11.190Z,2.40
2023-05-17T22:25:39.223Z,2.92
2023-05-17T22:28:08.610Z,2.58
2023-05-17T22:30:36.534Z,2.47
2023-05-17T22:33:04.627Z,2.60
2023-05-17T22:35:32.706Z,2.50
2023-05-17T22:38:00.581Z,2.42
2023-05-17T22:40:28.785Z,3.08
2023-05-17T22:42:58.165Z,3.20
2023-05-17T22:45:33.418Z,2.92
2023-05-17T22:48:02.827Z,2.90
2023-05-17T22:50:31.519Z,2.55
2023-05-17T22:53:00.110Z,2.63
2023-05-17T22:55:28.625Z,2.97
2023-05-17T22:57:57.415Z,3.00
2023-05-17T23:00:26.707Z,3.05
2023-05-17T23:02:54.720Z,3.00
2023-05-17T23:05:23.139Z,3.15
2023-05-17T23:07:51.121Z,2.70
2023-05-17T23:10:19.611Z,3.28
2023-05-17T23:12:48.510Z,3.10
2023-05-17T23:15:17.211Z,2.95
2023-05-17T23:17:47.350Z,2.80
2023-05-17T23:20:15.370Z,3.05
2023-05-17T23:22:43.996Z,3.15
2023-05-17T23:25:11.979Z,3.35
2023-05-17T23:27:39.910Z,2.88
2023-05-17T23:30:10.098Z,3.45
2023-05-17T23:32:38.142Z,3.10
2023-05-17T23:35:09.635Z,3.35
2023-05-17T23:37:38.008Z,2.78
2023-05-17T23:40:07.415Z,2.80
2023-05-17T23:42:35.527Z,3.30
2023-05-17T23:45:04.026Z,2.90
2023-05-17T23:47:33.875Z,2.90
2023-05-17T23:50:02.864Z,2.92
2023-05-17T23:52:32.442Z,3.15
2023-05-17T23:55:01.507Z,3.10
2023-05-17T23:57:29.468Z,3.20
2023-05-17T23:59:57.428Z,2.80
